createdAt,value
2022-11-02T00:00:55.951Z,3.38
2022-11-02T00:03:27.219Z,2.95
2022-11-02T00:05:57.937Z,3.35
2022-11-02T00:08:31.298Z,3.28
2022-11-02T00:11:02.038Z,2.55
2022-11-02T00:13:32.805Z,2.67
2022-11-02T00:16:05.806Z,3.33
2022-11-02T00:18:39.363Z,3.35
2022-11-02T00:21:10.710Z,3.30
2022-11-02T00:23:45.558Z,2.97
2022-11-02T00:26:17.653Z,2.67
2022-11-02T00:28:49.342Z,2.72
2022-11-02T00:31:20.114Z,2.75
2022-11-02T00:33:51.140Z,3.83
2022-11-02T00:36:21.900Z,3.40
2022-11-02T00:38:55.607Z,3.40
2022-11-02T00:41:26.366Z,2.80
2022-11-02T00:43:57.451Z,2.72
2022-11-02T00:46:28.215Z,3.28
2022-11-02T00:48:59.417Z,2.95
2022-11-02T00:51:31.472Z,2.70
2022-11-02T00:54:05.094Z,2.97
2022-11-02T00:56:39.330Z,3.03
2022-11-02T00:59:10.094Z,3.15
2022-11-02T01:01:40.984Z,2.80
2022-11-02T01:04:11.833Z,2.60
2022-11-02T01:06:42.697Z,2.88
2022-11-02T01:09:18.047Z,2.53
2022-11-02T01:11:48.753Z,3.20
2022-11-02T01:14:19.513Z,4.25
2022-11-02T01:16:50.651Z,2.47
2022-11-02T01:19:22.825Z,2.92
2022-11-02T01:21:53.530Z,2.38
2022-11-02T01:24:27.128Z,2.72
2022-11-02T01:26:58.126Z,2.42
2022-11-02T01:29:28.921Z,3.45
2022-11-02T01:31:59.747Z,2.78
2022-11-02T01:34:30.537Z,3.70
2022-11-02T01:37:01.686Z,4.03
2022-11-02T01:39:35.486Z,2.28
2022-11-02T01:42:06.505Z,2.75
2022-11-02T01:44:40.197Z,2.20
2022-11-02T01:47:16.420Z,2.50
2022-11-02T01:49:50.360Z,2.90
2022-11-02T01:52:23.998Z,2.88
2022-11-02T01:55:02.331Z,3.75
2022-11-02T01:57:36.614Z,2.95
2022-11-02T02:00:11.470Z,3.58
2022-11-02T02:02:50.967Z,3.17
2022-11-02T02:05:25.940Z,2.45
2022-11-02T02:07:57.227Z,3.08
2022-11-02T02:10:30.608Z,2.92
2022-11-02T02:13:01.559Z,3.35
2022-11-02T02:15:42.202Z,2.58
2022-11-02T02:18:21.194Z,3.00
2022-11-02T02:21:20.581Z,3.08
2022-11-02T02:24:25.252Z,3.22
2022-11-02T02:27:12.784Z,3.67
2022-11-02T02:29:54.790Z,2.65
2022-11-02T02:32:31.849Z,3.10
2022-11-02T02:35:10.789Z,3.13
2022-11-02T02:37:47.480Z,2.08
2022-11-02T02:40:22.487Z,3.30
2022-11-02T02:42:59.571Z,2.95
2022-11-02T02:45:38.488Z,2.40
2022-11-02T02:48:15.202Z,2.83
2022-11-02T02:50:50.707Z,2.38
2022-11-02T02:53:26.537Z,2.88
2022-11-02T02:55:58.235Z,3.30
2022-11-02T02:58:33.270Z,3.83
2022-11-02T03:01:09.745Z,2.80
2022-11-02T03:03:40.624Z,2.97
2022-11-02T03:06:20.469Z,2.90
2022-11-02T03:09:05.369Z,2.53
2022-11-02T03:11:37.153Z,2.70
2022-11-02T03:14:15.983Z,2.70
2022-11-02T03:17:06.233Z,2.20
2022-11-02T03:19:47.813Z,2.17
2022-11-02T03:22:26.972Z,3.03
2022-11-02T03:25:04.768Z,2.33
2022-11-02T03:27:43.395Z,2.78
2022-11-02T03:30:18.931Z,3.15
2022-11-02T03:32:59.136Z,3.40
2022-11-02T03:35:38.731Z,3.85
2022-11-02T03:38:15.859Z,3.72
2022-11-02T03:40:50.599Z,3.17
2022-11-02T03:43:25.354Z,3.00
2022-11-02T03:46:00.913Z,3.03
2022-11-02T03:48:39.141Z,3.38
2022-11-02T03:51:14.854Z,2.08
2022-11-02T03:53:51.440Z,2.42
2022-11-02T03:56:27.901Z,3.00
2022-11-02T03:59:00.342Z,2.83
2022-11-02T04:01:33.774Z,2.30
2022-11-02T04:04:08.309Z,2.55
2022-11-02T04:06:40.259Z,2.65
2022-11-02T04:09:11.551Z,2.45
2022-11-02T04:11:55.062Z,2.28
2022-11-02T04:14:41.726Z,2.45
2022-11-02T04:20:24.404Z,2.58
2022-11-02T04:23:08.465Z,2.25
2022-11-02T04:25:39.383Z,3.13
2022-11-02T04:28:19.786Z,2.30
2022-11-02T04:31:00.948Z,2.85
2022-11-02T04:33:34.802Z,2.85
2022-11-02T04:36:22.951Z,2.35
2022-11-02T04:38:56.004Z,3.20
2022-11-02T04:41:44.853Z,2.78
2022-11-02T04:44:27.844Z,2.47
2022-11-02T04:47:10.207Z,2.72
2022-11-02T04:49:41.008Z,2.88
2022-11-02T04:52:19.676Z,2.65
2022-11-02T04:54:54.109Z,2.88
2022-11-02T04:57:25.281Z,3.80
2022-11-02T04:59:58.266Z,2.60
2022-11-02T05:02:29.229Z,3.15
2022-11-02T05:05:01.528Z,2.83
2022-11-02T05:07:35.083Z,3.05
2022-11-02T05:10:06.620Z,2.55
2022-11-02T05:12:39.057Z,2.63
2022-11-02T05:15:12.029Z,2.25
2022-11-02T05:17:43.044Z,2.33
2022-11-02T05:20:15.981Z,2.05
2022-11-02T05:22:49.739Z,3.60
2022-11-02T05:25:22.369Z,2.30
2022-11-02T05:27:53.617Z,2.83
2022-11-02T05:30:24.435Z,2.08
2022-11-02T05:33:00.199Z,2.25
2022-11-02T05:35:31.859Z,2.00
2022-11-02T05:38:06.034Z,2.80
2022-11-02T05:40:38.279Z,2.20
2022-11-02T05:43:09.989Z,3.05
2022-11-02T05:45:42.080Z,3.53
2022-11-02T05:48:13.213Z,2.67
2022-11-02T05:50:43.942Z,2.58
2022-11-02T05:53:17.372Z,2.95
2022-11-02T05:55:48.105Z,3.55
2022-11-02T05:58:18.859Z,3.25
2022-11-02T06:00:49.622Z,2.28
2022-11-02T06:03:20.606Z,2.72
2022-11-02T06:05:51.348Z,3.38
2022-11-02T06:08:25.052Z,2.67
2022-11-02T06:10:55.917Z,2.15
2022-11-02T06:13:26.620Z,1.60
2022-11-02T06:15:57.938Z,2.75
2022-11-02T06:18:28.802Z,2.58
2022-11-02T06:21:01.065Z,3.20
2022-11-02T06:23:34.605Z,2.65
2022-11-02T06:26:06.581Z,2.83
2022-11-02T06:28:37.261Z,2.95
2022-11-02T06:31:08.690Z,3.15
2022-11-02T06:33:39.673Z,2.58
2022-11-02T06:36:11.304Z,2.92
2022-11-02T06:38:46.278Z,2.55
2022-11-02T06:41:17.005Z,2.45
2022-11-02T06:43:47.725Z,3.22
2022-11-02T06:46:18.547Z,2.40
2022-11-02T06:48:50.844Z,2.22
2022-11-02T06:51:22.033Z,2.28
2022-11-02T06:53:56.056Z,2.55
2022-11-02T06:56:27.261Z,2.88
2022-11-02T06:58:58.564Z,2.40
2022-11-02T07:01:29.878Z,2.75
2022-11-02T07:04:01.324Z,2.22
2022-11-02T07:06:33.320Z,3.55
2022-11-02T07:09:07.595Z,2.90
2022-11-02T07:11:38.837Z,2.40
2022-11-02T07:14:10.212Z,2.42
2022-11-02T07:16:41.462Z,2.90
2022-11-02T07:19:12.541Z,2.95
2022-11-02T07:21:46.676Z,3.05
2022-11-02T07:24:21.738Z,3.13
2022-11-02T07:26:53.589Z,2.95
2022-11-02T07:29:25.537Z,3.40
2022-11-02T07:31:57.009Z,3.58
2022-11-02T07:34:28.722Z,2.70
2022-11-02T07:37:00.124Z,3.63
2022-11-02T07:39:34.142Z,3.38
2022-11-02T07:42:07.469Z,2.63
2022-11-02T07:44:39.300Z,2.88
2022-11-02T07:47:10.621Z,3.35
2022-11-02T07:49:42.198Z,3.30
2022-11-02T07:52:13.794Z,2.40
2022-11-02T07:54:48.094Z,2.10
2022-11-02T07:57:20.206Z,2.92
2022-11-02T07:59:51.795Z,2.75
2022-11-02T08:02:23.228Z,2.95
2022-11-02T08:04:54.667Z,3.55
2022-11-02T08:07:26.020Z,2.30
2022-11-02T08:10:01.961Z,3.35
2022-11-02T08:12:33.700Z,2.58
2022-11-02T08:15:07.688Z,3.92
2022-11-02T08:17:39.369Z,3.45
2022-11-02T08:20:12.331Z,3.13
2022-11-02T08:22:44.133Z,2.92
2022-11-02T08:25:18.148Z,2.33
2022-11-02T08:27:49.546Z,2.58
2022-11-02T08:30:20.885Z,2.45
2022-11-02T08:32:56.559Z,2.83
2022-11-02T08:35:28.231Z,3.05
2022-11-02T08:38:00.834Z,2.95
2022-11-02T08:40:35.596Z,2.97
2022-11-02T08:43:09.445Z,3.08
2022-11-02T08:46:13.180Z,3.58
2022-11-02T08:48:33.500Z,4.82
2022-11-02T08:51:05.878Z,3.40
2022-11-02T08:53:37.863Z,3.58
2022-11-02T08:56:13.078Z,3.35
2022-11-02T08:58:44.746Z,3.55
2022-11-02T09:01:16.195Z,3.58
2022-11-02T09:03:47.815Z,3.65
2022-11-02T09:06:19.545Z,3.08
2022-11-02T09:08:53.781Z,2.58
2022-11-02T09:11:30.911Z,3.63
2022-11-02T09:14:02.370Z,2.40
2022-11-02T09:16:38.695Z,3.38
2022-11-02T09:19:12.587Z,2.90
2022-11-02T09:21:44.403Z,2.17
2022-11-02T09:24:15.639Z,3.63
2022-11-02T09:26:50.686Z,3.47
2022-11-02T09:32:13.760Z,3.20
2022-11-02T09:34:45.291Z,3.35
2022-11-02T09:37:17.073Z,3.65
2022-11-02T09:39:48.537Z,2.47
2022-11-02T09:42:28.895Z,2.88
2022-11-02T09:45:05.281Z,2.70
2022-11-02T09:50:47.663Z,2.47
2022-11-02T09:53:24.222Z,3.78
2022-11-02T09:56:00.156Z,3.20
2022-11-02T09:58:40.789Z,3.33
2022-11-02T10:01:32.554Z,3.03
2022-11-02T10:04:45.078Z,3.53
2022-11-02T10:07:30.388Z,2.35
2022-11-02T10:10:06.412Z,2.83
2022-11-02T10:12:45.728Z,2.67
2022-11-02T10:15:23.588Z,2.53
2022-11-02T10:17:59.843Z,3.53
2022-11-02T10:20:37.306Z,3.92
2022-11-02T10:23:12.413Z,3.00
2022-11-02T10:25:44.414Z,3.72
2022-11-02T10:28:19.923Z,3.30
2022-11-02T10:30:55.990Z,3.35
2022-11-02T10:33:30.856Z,2.97
2022-11-02T10:36:19.473Z,2.67
2022-11-02T10:39:06.361Z,2.90
2022-11-02T10:42:02.060Z,3.50
2022-11-02T10:44:56.710Z,2.75
2022-11-02T10:47:33.664Z,2.90
2022-11-02T10:55:31.203Z,2.22
2022-11-02T10:58:08.280Z,2.60
2022-11-02T11:00:41.848Z,3.83
2022-11-02T11:03:17.905Z,3.05
2022-11-02T11:06:03.662Z,2.50
2022-11-02T11:08:43.948Z,3.85
2022-11-02T11:11:19.282Z,2.95
2022-11-02T11:16:53.996Z,3.10
2022-11-02T11:22:28.136Z,2.40
2022-11-02T11:25:27.872Z,4.10
2022-11-02T11:28:02.061Z,2.78
2022-11-02T11:33:27.417Z,2.90
2022-11-02T11:36:02.010Z,2.88
2022-11-02T11:38:33.661Z,2.88
2022-11-02T11:41:07.736Z,2.55
2022-11-02T11:43:41.516Z,1.70
2022-11-02T11:46:17.019Z,2.00
2022-11-02T11:48:52.643Z,3.05
2022-11-02T11:51:45.512Z,3.25
2022-11-02T11:54:27.747Z,3.63
2022-11-02T11:57:01.234Z,2.80
2022-11-02T11:59:35.948Z,2.47
2022-11-02T12:02:27.570Z,2.20
2022-11-02T12:05:06.279Z,2.70
2022-11-02T12:08:11.811Z,2.30
2022-11-02T12:10:59.266Z,2.13
2022-11-02T12:14:12.350Z,3.20
2022-11-02T12:17:06.971Z,2.70
2022-11-02T12:19:54.589Z,3.38
2022-11-02T12:25:29.495Z,3.97
2022-11-02T12:28:13.837Z,2.65
2022-11-02T12:30:56.554Z,2.58
2022-11-02T12:33:50.032Z,2.28
2022-11-02T12:37:03.438Z,2.63
2022-11-02T12:39:44.536Z,2.20
2022-11-02T12:42:29.393Z,2.70
2022-11-02T12:45:15.159Z,2.58
2022-11-02T12:47:59.297Z,2.58
2022-11-02T12:50:52.469Z,2.40
2022-11-02T12:53:44.539Z,2.65
2022-11-02T12:56:22.877Z,2.45
2022-11-02T12:58:58.103Z,2.60
2022-11-02T13:01:35.752Z,2.53
2022-11-02T13:04:17.488Z,2.78
2022-11-02T13:06:52.831Z,2.85
2022-11-02T13:09:29.091Z,2.92
2022-11-02T13:12:07.123Z,3.40
2022-11-02T13:14:45.711Z,2.60
2022-11-02T13:17:23.950Z,2.28
2022-11-02T13:19:59.590Z,2.75
2022-11-02T13:22:35.436Z,2.08
2022-11-02T13:25:16.870Z,2.30
2022-11-02T13:27:55.608Z,1.77
2022-11-02T13:30:30.835Z,2.40
2022-11-02T13:33:07.421Z,2.25
2022-11-02T13:35:41.889Z,2.22
2022-11-02T13:38:28.265Z,2.80
2022-11-02T13:41:27.967Z,2.13
2022-11-02T13:44:23.642Z,2.17
2022-11-02T13:47:38.307Z,1.80
2022-11-02T13:50:16.505Z,1.92
2022-11-02T13:52:52.495Z,1.70
2022-11-02T13:55:29.349Z,1.85
2022-11-02T13:58:03.615Z,1.55
2022-11-02T14:00:43.316Z,2.22
2022-11-02T14:03:24.321Z,2.80
2022-11-02T14:06:02.952Z,2.45
2022-11-02T14:08:39.179Z,2.75
2022-11-02T14:11:37.476Z,2.77
2022-11-02T14:14:25.912Z,2.05
2022-11-02T14:17:17.278Z,2.10
2022-11-02T14:20:06.205Z,2.00
2022-11-02T14:22:38.179Z,2.45
2022-11-02T14:25:21.153Z,3.00
2022-11-02T14:27:53.404Z,2.67
2022-11-02T14:30:49.594Z,3.08
2022-11-02T14:33:57.194Z,2.80
2022-11-02T14:36:52.501Z,2.30
2022-11-02T14:39:31.861Z,3.15
2022-11-02T14:42:29.821Z,2.33
2022-11-02T14:47:44.810Z,2.90
2022-11-02T14:50:21.456Z,2.63
2022-11-02T14:53:07.400Z,2.53
2022-11-02T14:55:41.574Z,2.58
2022-11-02T14:58:22.512Z,2.47
2022-11-02T15:01:04.254Z,3.80
2022-11-02T15:03:40.253Z,2.60
2022-11-02T15:06:20.887Z,2.58
2022-11-02T15:08:58.095Z,2.30
2022-11-02T15:11:50.743Z,2.38
2022-11-02T15:14:56.797Z,2.45
2022-11-02T15:17:58.189Z,3.03
2022-11-02T15:20:32.933Z,3.08
2022-11-02T15:23:30.009Z,2.20
2022-11-02T15:26:12.484Z,2.60
2022-11-02T15:28:54.738Z,2.85
2022-11-02T15:31:28.033Z,2.53
2022-11-02T15:34:01.494Z,2.42
2022-11-02T15:36:37.174Z,2.33
2022-11-02T15:39:11.487Z,2.42
2022-11-02T15:41:49.635Z,2.10
2022-11-02T15:44:44.389Z,2.33
2022-11-02T15:47:30.247Z,2.22
2022-11-02T15:50:25.950Z,2.30
2022-11-02T15:53:29.093Z,2.83
2022-11-02T15:56:17.305Z,2.33
2022-11-02T15:59:18.857Z,2.83
2022-11-02T16:02:06.139Z,2.67
2022-11-02T16:04:39.236Z,2.38
2022-11-02T17:32:58.086Z,2.97
2022-11-02T17:35:30.032Z,3.03
2022-11-02T17:38:01.715Z,3.60
2022-11-02T17:40:32.930Z,8.68
2022-11-02T17:43:02.593Z,4.80
2022-11-02T17:45:35.030Z,5.30
2022-11-02T17:48:11.105Z,5.95
2022-11-02T17:50:43.721Z,5.90
2022-11-02T17:53:16.487Z,4.85
2022-11-02T17:55:48.921Z,4.90
2022-11-02T17:58:21.961Z,6.07
2022-11-02T18:00:54.867Z,10.10
2022-11-02T18:03:31.673Z,6.57
2022-11-02T18:06:03.453Z,11.60
2022-11-02T18:08:54.491Z,6.80
2022-11-02T18:11:26.699Z,6.07
2022-11-02T18:13:58.107Z,15.75
2022-11-02T18:16:28.900Z,11.30
2022-11-02T18:19:03.566Z,9.68
2022-11-02T18:21:34.723Z,5.03
2022-11-02T18:24:07.070Z,6.15
2022-11-02T18:26:41.417Z,6.22
2022-11-02T18:29:16.792Z,9.07
2022-11-02T18:31:50.878Z,5.70
2022-11-02T18:34:25.085Z,6.03
2022-11-02T18:36:56.960Z,5.47
2022-11-02T18:39:28.216Z,3.75
2022-11-02T18:42:00.059Z,3.92
2022-11-02T18:44:31.686Z,5.25
2022-11-02T18:47:03.416Z,9.07
2022-11-02T18:49:38.349Z,7.10
2022-11-02T18:52:11.107Z,4.28
2022-11-02T18:54:42.957Z,8.68
2022-11-02T18:57:15.282Z,4.95
2022-11-02T18:59:46.670Z,5.07
2022-11-02T19:02:19.308Z,3.58
2022-11-02T19:04:54.131Z,7.10
2022-11-02T19:07:37.805Z,4.35
2022-11-02T19:10:10.304Z,5.90
2022-11-02T19:12:41.681Z,6.00
2022-11-02T19:15:13.757Z,6.32
2022-11-02T19:17:45.755Z,4.30
2022-11-02T19:20:19.898Z,6.50
2022-11-02T19:22:58.016Z,4.82
2022-11-02T19:25:29.600Z,4.05
2022-11-02T19:28:01.249Z,3.40
2022-11-02T19:30:32.398Z,3.40
2022-11-02T19:33:05.996Z,3.78
2022-11-02T19:35:40.284Z,3.90
2022-11-02T19:38:12.778Z,4.63
2022-11-02T19:40:43.988Z,5.70
2022-11-02T19:43:15.151Z,5.72
2022-11-02T19:45:47.106Z,6.88
2022-11-02T19:48:18.486Z,3.58
2022-11-02T19:50:52.037Z,4.75
2022-11-02T19:53:23.169Z,5.72
2022-11-02T19:55:58.620Z,7.88
2022-11-02T19:58:30.546Z,2.90
2022-11-02T20:01:08.649Z,2.90
2022-11-02T20:03:41.996Z,3.45
2022-11-02T20:06:18.991Z,4.32
2022-11-02T20:11:24.839Z,53.05
2022-11-02T20:13:57.226Z,65.03
2022-11-02T20:16:29.097Z,16.98
2022-11-02T20:19:00.885Z,20.52
2022-11-02T20:21:41.340Z,7.95
2022-11-02T20:24:14.524Z,7.13
2022-11-02T20:26:45.669Z,4.20
2022-11-02T20:29:18.281Z,4.65
2022-11-02T20:31:49.394Z,3.80
2022-11-02T20:34:20.716Z,4.05
2022-11-02T20:36:55.243Z,3.30
2022-11-02T20:39:26.900Z,3.08
2022-11-02T20:41:58.980Z,2.97
2022-11-02T20:44:31.721Z,2.90
2022-11-02T20:47:03.254Z,2.58
2022-11-02T20:49:49.894Z,3.15
2022-11-02T20:52:25.765Z,3.78
2022-11-02T20:54:56.826Z,3.80
2022-11-02T20:57:28.992Z,4.78
2022-11-02T21:00:00.532Z,4.45
2022-11-02T21:02:32.989Z,2.80
2022-11-02T21:05:05.526Z,4.38
2022-11-02T21:07:40.319Z,3.08
2022-11-02T21:10:14.299Z,2.55
2022-11-02T21:12:57.982Z,3.05
2022-11-02T21:15:29.352Z,2.15
2022-11-02T21:18:00.921Z,2.38
2022-11-02T21:20:34.694Z,2.10
2022-11-02T21:23:12.249Z,2.92
2022-11-02T21:25:44.234Z,2.40
2022-11-02T21:28:15.249Z,2.30
2022-11-02T21:30:47.014Z,2.78
2022-11-02T21:33:19.476Z,2.90
2022-11-02T21:35:53.009Z,2.90
2022-11-02T21:38:28.326Z,2.35
2022-11-02T21:41:02.631Z,2.30
2022-11-02T21:43:34.362Z,2.50
2022-11-02T21:46:07.222Z,2.47
2022-11-02T21:48:41.694Z,2.42
2022-11-02T21:51:15.828Z,2.70
2022-11-02T21:53:51.976Z,2.67
2022-11-02T21:56:25.968Z,3.83
2022-11-02T21:58:59.618Z,2.65
2022-11-02T22:01:51.325Z,2.50
2022-11-02T22:04:25.781Z,3.42
2022-11-02T22:06:59.027Z,2.65
2022-11-02T22:09:33.963Z,1.90
2022-11-02T22:12:17.662Z,2.30
2022-11-02T22:14:49.236Z,2.05
2022-11-02T22:17:47.889Z,1.70
2022-11-02T22:20:14.591Z,1.73
2022-11-02T22:22:46.684Z,2.35
2022-11-02T22:25:21.619Z,3.08
2022-11-02T22:27:56.462Z,3.67
2022-11-02T22:30:29.933Z,2.83
2022-11-02T22:33:01.734Z,3.42
2022-11-02T22:35:34.307Z,4.15
2022-11-02T22:38:21.282Z,2.13
2022-11-02T22:41:03.172Z,2.60
2022-11-02T22:43:34.758Z,5.60
2022-11-02T22:46:08.018Z,2.58
2022-11-02T22:48:41.652Z,2.30
2022-11-02T22:51:14.412Z,2.90
2022-11-02T22:53:45.988Z,3.22
2022-11-02T22:56:25.117Z,2.00
2022-11-02T22:58:56.864Z,2.60
2022-11-02T23:01:30.448Z,3.88
2022-11-02T23:04:02.578Z,3.75
2022-11-02T23:06:34.768Z,2.38
2022-11-02T23:09:06.517Z,4.55
2022-11-02T23:11:39.838Z,6.95
2022-11-02T23:14:13.488Z,3.72
2022-11-02T23:16:47.310Z,4.65
2022-11-02T23:19:26.381Z,3.42
2022-11-02T23:22:13.049Z,3.78
2022-11-02T23:24:59.225Z,2.80
2022-11-02T23:27:34.143Z,2.75
2022-11-02T23:30:17.701Z,2.42
2022-11-02T23:32:49.255Z,2.63
2022-11-02T23:35:33.318Z,3.15
2022-11-02T23:38:06.607Z,1.80
2022-11-02T23:40:38.296Z,2.80
2022-11-02T23:43:12.775Z,2.05
2022-11-02T23:45:45.163Z,4.47
2022-11-02T23:48:17.461Z,2.53
2022-11-02T23:51:02.395Z,2.75
2022-11-02T23:53:47.093Z,2.28
2022-11-02T23:56:34.867Z,2.85
2022-11-02T23:59:09.899Z,2.55
